This is the latest recevied weather packets stored in our database for station/object KD7KCN-5. If no packets are shown the sender has not sent any weather packets the latest 1 day(s).
| Time | Temp. | Humidity | Pressure | Rain* | Wind** | Luminosity | Snow |
|---|---|---|---|---|---|---|---|
| 1778022710 | 15.56° C | 29% | 1008.2 hPa | 0 mm | 5.36 m/s, 199° | 72 W/m² | - |
| 1778022107 | 16.11° C | 30% | 1008.3 hPa | 0 mm | 3.58 m/s, 171° | 431 W/m² | - |
| 1778021507 | 15° C | 30% | 1008.4 hPa | 0 mm | 2.68 m/s, 160° | 492 W/m² | - |
| 1778020907 | 14.44° C | 31% | 1008.5 hPa | 0 mm | 1.79 m/s, 128° | 366 W/m² | - |
| 1778020307 | 14.44° C | 31% | 1008.5 hPa | 0 mm | 0.89 m/s, 203° | 139 W/m² | - |
| 1778019710 | 15.56° C | 29% | 1008.4 hPa | 0 mm | 4.02 m/s, 148° | 97 W/m² | - |
| 1778019107 | 16.67° C | 29% | 1008.6 hPa | 0 mm | 4.02 m/s, 131° | 172 W/m² | - |
| 1778018507 | 16.11° C | 28% | 1008.7 hPa | 0 mm | 5.36 m/s, 151° | 793 W/m² | - |
| 1778017907 | 15.56° C | 31% | 1008.8 hPa | 0 mm | 4.02 m/s, 197° | 865 W/m² | - |
| 1778017307 | 14.44° C | 32% | 1009 hPa | 0 mm | 6.71 m/s, 148° | 918 W/m² | - |
| 1778016707 | 15° C | 31% | 1008.8 hPa | 0 mm | 6.26 m/s, 150° | 204 W/m² | - |
| 1778016107 | 15° C | 33% | 1008.9 hPa | 0 mm | 4.47 m/s, 118° | 953 W/m² | - |
| 1778014911 | 16.67° C | 30% | 1009 hPa | 0 mm | 4.02 m/s, 130° | 1014 W/m² | - |
| 1778014308 | 17.22° C | 29% | 1009 hPa | 0 mm | 4.02 m/s, 150° | 1042 W/m² | - |
| 1778013707 | 16.67° C | 31% | 1009.1 hPa | 0 mm | 1.79 m/s, 245° | 1014 W/m² | - |
| 1778013107 | 16.11° C | 33% | 1009 hPa | 0 mm | 4.92 m/s, 218° | 944 W/m² | - |
| 1778012508 | 15.56° C | 32% | 1009.1 hPa | 0 mm | 3.13 m/s, 153° | 951 W/m² | - |
| 1778011911 | 16.11° C | 33% | 1009.1 hPa | 0 mm | 0.89 m/s, 135° | 951 W/m² | - |
| 1778011307 | 16.11° C | 32% | 1009.2 hPa | 0 mm | 3.58 m/s, 152° | 1113 W/m² | - |
| 1778010708 | 15° C | 34% | 1009.3 hPa | 0 mm | 5.36 m/s, 144° | 1069 W/m² | - |
| 1778010114 | 14.44° C | 36% | 1009.5 hPa | 0 mm | 6.26 m/s, 163° | 1020 W/m² | - |
| 1778009509 | 14.44° C | 36% | 1009.6 hPa | 0 mm | 5.81 m/s, 136° | 469 W/m² | - |
| 1778008911 | 14.44° C | 37% | 1009.7 hPa | 0 mm | 5.81 m/s, 139° | 1099 W/m² | - |
| 1778008308 | 13.89° C | 39% | 1010 hPa | 0 mm | 3.13 m/s, 148° | 1004 W/m² | - |
| 1778007709 | 13.89° C | 42% | 1010 hPa | 0 mm | 4.02 m/s, 190° | 1021 W/m² | - |
* Rain latest hour (hover to see other rain measurements)
** Current wind speed in m/s (hover to see current wind gust speed)